createdAt,value
2018-07-08T00:00:15.736Z,75.63
2018-07-08T00:01:17.126Z,75.45
2018-07-08T00:02:18.515Z,75.63
2018-07-08T00:03:19.896Z,75.82
2018-07-08T00:04:21.296Z,76.12
2018-07-08T00:05:22.684Z,76.31
2018-07-08T00:06:24.064Z,76.34
2018-07-08T00:07:25.450Z,76.02
2018-07-08T00:08:26.843Z,76.21
2018-07-08T00:09:28.228Z,76.69
2018-07-08T00:10:29.621Z,76.40
2018-07-08T00:11:31.001Z,76.69
2018-07-08T00:12:32.388Z,76.40
2018-07-08T00:13:33.776Z,76.98
2018-07-08T00:14:35.165Z,76.98
2018-07-08T00:15:36.545Z,77.17
2018-07-08T00:16:37.937Z,77.17
2018-07-08T00:17:39.326Z,77.94
2018-07-08T00:18:40.724Z,77.56
2018-07-08T00:19:42.113Z,77.46
2018-07-08T00:20:43.492Z,77.75
2018-07-08T00:21:44.892Z,77.13
2018-07-08T00:22:46.275Z,77.36
2018-07-08T00:23:47.657Z,77.46
2018-07-08T00:24:49.040Z,77.56
2018-07-08T00:25:50.432Z,77.84
2018-07-08T00:26:51.818Z,77.80
2018-07-08T00:27:53.211Z,77.71
2018-07-08T00:28:54.591Z,78.23
2018-07-08T00:29:55.974Z,78.28
2018-07-08T00:30:57.371Z,78.77
2018-07-08T00:31:58.750Z,78.86
2018-07-08T00:33:00.128Z,78.77
2018-07-08T00:34:01.528Z,78.47
2018-07-08T00:35:02.926Z,78.77
2018-07-08T00:36:04.322Z,78.67
2018-07-08T00:37:05.712Z,79.05
2018-07-08T00:38:07.096Z,78.96
2018-07-08T00:39:08.481Z,79.24
2018-07-08T00:40:09.864Z,79.24
2018-07-08T00:41:11.237Z,78.96
2018-07-08T00:42:12.627Z,79.24
2018-07-08T00:43:14.024Z,78.86
2018-07-08T00:44:15.411Z,79.34
2018-07-08T00:45:16.794Z,79.44
2018-07-08T00:46:18.185Z,79.34
2018-07-08T00:47:19.553Z,79.24
2018-07-08T00:48:20.961Z,79.14
2018-07-08T00:49:22.351Z,79.24
2018-07-08T00:50:23.727Z,79.24
2018-07-08T00:51:25.121Z,79.63
2018-07-08T00:52:26.511Z,79.44
2018-07-08T00:53:27.903Z,79.72
2018-07-08T00:54:29.289Z,79.72
2018-07-08T00:55:30.673Z,80.01
2018-07-08T00:56:32.072Z,79.72
2018-07-08T00:57:33.458Z,79.63
2018-07-08T00:58:34.845Z,80.30
2018-07-08T00:59:36.231Z,80.20
2018-07-08T01:00:37.618Z,80.20
2018-07-08T01:01:39.059Z,80.07
2018-07-08T01:02:40.393Z,80.11
2018-07-08T01:03:41.779Z,80.45
2018-07-08T01:04:43.162Z,79.63
2018-07-08T01:05:44.554Z,80.55
2018-07-08T01:06:45.934Z,80.20
2018-07-08T01:07:47.937Z,80.20
2018-07-08T01:08:49.402Z,80.30
2018-07-08T01:09:50.711Z,80.16
2018-07-08T01:10:52.106Z,80.20
2018-07-08T01:11:53.499Z,80.30
2018-07-08T01:12:54.874Z,80.64
2018-07-08T01:13:56.267Z,80.64
2018-07-08T01:14:57.649Z,80.83
2018-07-08T01:15:59.037Z,81.12
2018-07-08T01:17:00.416Z,80.83
2018-07-08T01:18:01.817Z,81.02
2018-07-08T01:19:03.197Z,81.41
2018-07-08T01:20:04.583Z,81.41
2018-07-08T01:21:05.975Z,81.22
2018-07-08T01:22:07.357Z,81.51
2018-07-08T01:23:09.655Z,81.51
2018-07-08T01:24:11.044Z,81.51
2018-07-08T01:25:12.421Z,81.51
2018-07-08T01:26:13.810Z,81.70
2018-07-08T01:27:15.198Z,81.60
2018-07-08T01:28:16.590Z,81.70
2018-07-08T01:29:17.972Z,82.08
2018-07-08T01:30:19.357Z,82.27
2018-07-08T01:31:20.736Z,82.18
2018-07-08T01:32:22.128Z,82.18
2018-07-08T01:33:23.513Z,82.46
2018-07-08T01:34:24.900Z,82.56
2018-07-08T01:35:26.283Z,82.27
2018-07-08T01:36:27.666Z,82.46
2018-07-08T01:37:29.062Z,82.37
2018-07-08T01:38:30.438Z,82.75
2018-07-08T01:39:31.827Z,82.75
2018-07-08T01:40:33.207Z,82.75
2018-07-08T01:41:34.593Z,82.75
2018-07-08T01:42:35.980Z,82.65
2018-07-08T01:43:37.376Z,82.56
2018-07-08T01:44:38.758Z,82.75
2018-07-08T01:45:40.152Z,82.75
2018-07-08T01:46:41.544Z,83.14
2018-07-08T01:47:42.934Z,83.14
2018-07-08T01:48:44.330Z,83.14
2018-07-08T01:49:45.709Z,83.14
2018-07-08T01:50:47.095Z,83.23
2018-07-08T01:51:48.491Z,83.33
2018-07-08T01:52:49.876Z,83.14
2018-07-08T01:53:51.258Z,83.33
2018-07-08T01:54:52.647Z,83.33
2018-07-08T01:55:54.059Z,83.71
2018-07-08T01:56:55.447Z,83.61
2018-07-08T01:57:56.826Z,83.61
2018-07-08T01:58:58.210Z,83.33
2018-07-08T01:59:59.584Z,83.33
2018-07-08T02:01:00.981Z,83.33
2018-07-08T02:02:02.362Z,83.33
2018-07-08T02:03:03.746Z,83.33
2018-07-08T02:04:05.124Z,83.61
2018-07-08T02:05:06.514Z,83.52
2018-07-08T02:06:07.895Z,83.42
2018-07-08T02:07:09.283Z,83.42
2018-07-08T02:08:10.668Z,83.33
2018-07-08T02:09:12.054Z,83.42
2018-07-08T02:10:13.431Z,83.23
2018-07-08T02:11:14.819Z,83.42
2018-07-08T02:12:16.206Z,83.61
2018-07-08T02:13:17.583Z,83.71
2018-07-08T02:14:18.971Z,83.42
2018-07-08T02:15:20.375Z,84.00
2018-07-08T02:16:21.758Z,83.52
2018-07-08T02:17:23.141Z,83.52
2018-07-08T02:18:24.528Z,83.61
2018-07-08T02:19:25.917Z,83.61
2018-07-08T02:20:27.312Z,83.42
2018-07-08T02:21:28.696Z,83.33
2018-07-08T02:22:30.089Z,83.42
2018-07-08T02:23:31.474Z,83.61
2018-07-08T02:24:32.868Z,83.81
2018-07-08T02:25:34.258Z,83.42
2018-07-08T02:26:35.687Z,83.33
2018-07-08T02:27:37.032Z,84.38
2018-07-08T02:28:38.426Z,83.52
2018-07-08T02:29:39.821Z,84.00
2018-07-08T02:30:41.199Z,83.33
2018-07-08T02:31:42.586Z,83.81
2018-07-08T02:32:43.977Z,83.91
2018-07-08T02:33:45.373Z,84.28
2018-07-08T02:34:46.757Z,83.33
2018-07-08T02:35:48.153Z,83.52
2018-07-08T02:36:49.540Z,83.71
2018-07-08T02:37:50.921Z,83.71
2018-07-08T02:38:52.317Z,83.81
2018-07-08T02:39:53.695Z,84.09
2018-07-08T02:40:55.082Z,83.61
2018-07-08T02:41:56.469Z,83.52
2018-07-08T02:42:57.853Z,83.52
2018-07-08T02:43:59.240Z,83.81
2018-07-08T02:45:00.643Z,84.00
2018-07-08T02:46:02.042Z,84.19
2018-07-08T02:47:03.420Z,84.09
2018-07-08T02:48:04.803Z,84.28
2018-07-08T02:49:06.178Z,84.67
2018-07-08T02:50:07.569Z,84.28
2018-07-08T02:51:08.952Z,84.09
2018-07-08T02:52:10.340Z,84.38
2018-07-08T02:53:11.727Z,84.09
2018-07-08T02:54:13.119Z,84.09
2018-07-08T02:55:14.496Z,84.28
2018-07-08T02:56:15.892Z,84.38
2018-07-08T02:57:17.271Z,84.38
2018-07-08T02:58:18.659Z,84.58
2018-07-08T02:59:20.050Z,84.38
2018-07-08T03:00:21.439Z,84.48
2018-07-08T03:01:22.829Z,84.00
2018-07-08T03:02:24.216Z,83.91
2018-07-08T03:03:25.603Z,84.09
2018-07-08T03:04:26.993Z,84.28
2018-07-08T03:05:28.387Z,84.58
2018-07-08T03:06:29.763Z,84.77
2018-07-08T03:07:31.160Z,84.58
2018-07-08T03:08:32.539Z,84.09
2018-07-08T03:09:33.927Z,84.48
2018-07-08T03:10:35.324Z,84.19
2018-07-08T03:11:36.717Z,84.48
2018-07-08T03:12:38.104Z,84.28
2018-07-08T03:13:39.485Z,84.48
2018-07-08T03:14:40.880Z,84.58
2018-07-08T03:15:42.269Z,84.48
2018-07-08T03:16:43.660Z,84.38
2018-07-08T03:17:45.050Z,84.95
2018-07-08T03:18:46.440Z,84.86
2018-07-08T03:19:47.828Z,84.95
2018-07-08T03:20:49.290Z,84.86
2018-07-08T03:21:50.602Z,85.05
2018-07-08T03:22:51.992Z,84.86
2018-07-08T03:23:53.386Z,84.77
2018-07-08T03:24:54.776Z,85.05
2018-07-08T03:25:56.171Z,85.05
2018-07-08T03:26:57.552Z,84.86
2018-07-08T03:27:58.944Z,84.95
2018-07-08T03:29:00.335Z,84.95
2018-07-08T03:30:01.746Z,85.05
2018-07-08T03:31:03.115Z,85.53
2018-07-08T03:32:04.505Z,85.25
2018-07-08T03:33:05.897Z,85.25
2018-07-08T03:34:07.287Z,85.15
2018-07-08T03:35:08.665Z,85.15
2018-07-08T03:36:10.040Z,85.34
2018-07-08T03:37:11.443Z,85.72
2018-07-08T03:38:13.660Z,85.53
2018-07-08T03:39:15.999Z,85.92
2018-07-08T03:40:17.391Z,86.01
2018-07-08T03:41:18.778Z,85.82
2018-07-08T03:42:20.169Z,85.72
2018-07-08T03:43:21.561Z,86.01
2018-07-08T03:44:22.943Z,86.21
2018-07-08T03:45:24.332Z,86.21
2018-07-08T03:46:25.710Z,85.63
2018-07-08T03:47:27.100Z,85.72
2018-07-08T03:48:28.492Z,86.21
2018-07-08T03:49:29.870Z,86.30
2018-07-08T03:50:31.257Z,86.40
2018-07-08T03:51:32.652Z,86.30
2018-07-08T03:52:34.050Z,86.68
2018-07-08T03:53:35.430Z,86.88
2018-07-08T03:54:37.454Z,86.58
2018-07-08T03:55:38.485Z,86.58
2018-07-08T03:56:39.866Z,86.68
2018-07-08T03:57:41.266Z,86.63
2018-07-08T03:58:42.648Z,86.40
2018-07-08T03:59:44.039Z,86.68
2018-07-08T04:00:45.438Z,86.40
2018-07-08T04:01:46.816Z,86.58
2018-07-08T04:02:48.202Z,86.92
2018-07-08T04:03:49.591Z,87.01
2018-07-08T04:04:50.987Z,86.82
2018-07-08T04:05:52.379Z,86.72
2018-07-08T04:06:53.761Z,86.92
2018-07-08T04:07:55.151Z,87.01
2018-07-08T04:08:56.543Z,87.21
2018-07-08T04:09:57.934Z,87.01
2018-07-08T04:10:59.316Z,86.92
2018-07-08T04:12:00.709Z,87.21
2018-07-08T04:13:02.102Z,86.92
2018-07-08T04:14:03.497Z,87.21
2018-07-08T04:15:04.880Z,87.01
2018-07-08T04:16:06.271Z,87.21
2018-07-08T04:17:07.666Z,86.92
2018-07-08T04:18:09.056Z,87.49
2018-07-08T04:19:10.442Z,87.21
2018-07-08T04:20:11.840Z,87.30
2018-07-08T04:21:13.232Z,87.11
2018-07-08T04:22:14.614Z,87.30
2018-07-08T04:23:16.006Z,87.49
2018-07-08T04:24:17.394Z,87.88
2018-07-08T04:25:18.783Z,87.88
2018-07-08T04:26:20.173Z,87.78
2018-07-08T04:27:21.559Z,87.11
2018-07-08T04:28:22.953Z,87.11
2018-07-08T04:29:24.344Z,87.68
2018-07-08T04:30:25.749Z,87.40
2018-07-08T04:31:27.119Z,87.68
2018-07-08T04:32:28.509Z,87.59
2018-07-08T04:33:29.897Z,87.68
2018-07-08T04:34:31.294Z,87.68
2018-07-08T04:35:32.690Z,87.40
2018-07-08T04:36:34.066Z,87.59
2018-07-08T04:37:35.457Z,87.78
2018-07-08T04:38:36.853Z,87.21
2018-07-08T04:39:38.231Z,87.30
2018-07-08T04:40:39.619Z,87.68
2018-07-08T04:41:41.013Z,87.98
2018-07-08T04:42:42.396Z,87.78
2018-07-08T04:43:43.780Z,87.68
2018-07-08T04:44:45.171Z,87.35
2018-07-08T04:45:46.580Z,87.78
2018-07-08T04:46:47.960Z,87.59
2018-07-08T04:47:49.348Z,87.63
2018-07-08T04:48:50.742Z,87.73
2018-07-08T04:49:52.124Z,87.49
2018-07-08T04:50:53.506Z,87.40
2018-07-08T04:51:54.894Z,87.73
2018-07-08T04:52:56.285Z,87.54
2018-07-08T04:53:57.666Z,87.92
2018-07-08T04:54:59.059Z,87.25
2018-07-08T04:56:00.450Z,87.88
2018-07-08T04:57:01.841Z,88.02
2018-07-08T04:58:03.231Z,88.11
2018-07-08T04:59:04.631Z,88.40
2018-07-08T05:00:06.038Z,87.82
2018-07-08T05:01:07.419Z,88.49
2018-07-08T05:02:08.819Z,87.82
2018-07-08T05:03:10.197Z,88.40
2018-07-08T05:04:11.589Z,87.73
2018-07-08T05:05:12.978Z,87.82
2018-07-08T05:06:14.368Z,87.82
2018-07-08T05:07:15.768Z,88.21
2018-07-08T05:08:17.158Z,87.54
2018-07-08T05:09:18.552Z,87.73
2018-07-08T05:10:19.934Z,87.73
2018-07-08T05:11:21.320Z,88.11
2018-07-08T05:12:22.714Z,88.21
2018-07-08T05:13:24.120Z,88.40
2018-07-08T05:14:25.506Z,88.21
2018-07-08T05:15:26.912Z,88.11
2018-07-08T05:16:28.303Z,88.40
2018-07-08T05:17:29.715Z,88.31
2018-07-08T05:18:31.100Z,88.79
2018-07-08T05:19:32.491Z,88.49
2018-07-08T05:20:33.881Z,88.88
2018-07-08T05:21:35.269Z,88.49
2018-07-08T05:22:36.669Z,88.21
2018-07-08T05:23:38.075Z,88.49
2018-07-08T05:24:39.466Z,87.92
2018-07-08T05:25:40.861Z,88.11
2018-07-08T05:26:42.257Z,88.54
2018-07-08T05:27:43.651Z,88.79
2018-07-08T05:28:45.039Z,88.54
2018-07-08T05:29:46.438Z,88.35
2018-07-08T05:30:47.834Z,88.25
2018-07-08T05:31:49.214Z,87.96
2018-07-08T05:32:50.607Z,88.06
2018-07-08T05:33:51.992Z,88.64
2018-07-08T05:34:53.389Z,88.54
2018-07-08T05:35:54.776Z,88.35
2018-07-08T05:36:56.164Z,87.87
2018-07-08T05:37:57.552Z,88.25
2018-07-08T05:38:58.944Z,88.45
2018-07-08T05:40:00.336Z,88.25
2018-07-08T05:41:01.740Z,88.16
2018-07-08T05:42:03.142Z,88.35
2018-07-08T05:43:04.535Z,87.68
2018-07-08T05:44:05.928Z,87.68
2018-07-08T05:45:07.318Z,87.77
2018-07-08T05:46:08.712Z,87.58
2018-07-08T05:47:10.113Z,87.87
2018-07-08T05:48:11.496Z,88.54
2018-07-08T05:49:12.887Z,88.35
2018-07-08T05:50:14.348Z,87.87
2018-07-08T05:51:15.668Z,87.72
2018-07-08T05:52:17.067Z,88.01
2018-07-08T05:53:19.007Z,88.10
2018-07-08T05:54:20.409Z,88.30
2018-07-08T05:55:21.802Z,87.92
2018-07-08T05:56:23.189Z,88.20
2018-07-08T05:57:24.577Z,88.01
2018-07-08T05:58:25.972Z,87.92
2018-07-08T05:59:27.370Z,87.92
2018-07-08T06:00:29.420Z,87.53
2018-07-08T06:01:30.808Z,88.10
2018-07-08T06:02:32.193Z,88.20
2018-07-08T06:03:33.582Z,88.39
2018-07-08T06:04:35.005Z,88.39
2018-07-08T06:05:36.378Z,88.10
2018-07-08T06:06:37.776Z,88.97
2018-07-08T06:07:39.182Z,88.49
2018-07-08T06:08:40.568Z,88.59
2018-07-08T06:09:41.960Z,88.97
2018-07-08T06:10:43.359Z,88.97
2018-07-08T06:11:44.750Z,88.97
2018-07-08T06:12:46.141Z,88.39
2018-07-08T06:13:47.537Z,88.30
2018-07-08T06:14:48.937Z,88.30
2018-07-08T06:15:50.321Z,88.97
2018-07-08T06:16:51.728Z,88.78
2018-07-08T06:17:53.100Z,88.78
2018-07-08T06:18:54.498Z,88.59
2018-07-08T06:19:55.886Z,88.30
2018-07-08T06:20:57.281Z,88.59
2018-07-08T06:21:58.661Z,88.68
2018-07-08T06:23:00.061Z,88.34
2018-07-08T06:24:01.448Z,88.44
2018-07-08T06:25:02.838Z,88.63
2018-07-08T06:26:04.255Z,88.53
2018-07-08T06:27:05.584Z,88.44
2018-07-08T06:28:06.975Z,88.44
2018-07-08T06:29:08.363Z,88.06
2018-07-08T06:30:09.752Z,87.67
2018-07-08T06:31:11.156Z,87.96
2018-07-08T06:32:12.554Z,87.96
2018-07-08T06:33:13.939Z,87.86
2018-07-08T06:34:15.326Z,87.48
2018-07-08T06:35:16.718Z,87.96
2018-07-08T06:36:18.102Z,87.86
2018-07-08T06:37:19.505Z,87.71
2018-07-08T06:38:20.894Z,87.62
2018-07-08T06:39:22.295Z,87.27
2018-07-08T06:40:23.679Z,86.79
2018-07-08T06:41:25.078Z,86.22
2018-07-08T06:42:26.462Z,86.02
2018-07-08T06:43:27.866Z,85.74
2018-07-08T06:44:29.255Z,85.06
2018-07-08T06:45:30.687Z,85.06
2018-07-08T06:46:32.037Z,84.97
2018-07-08T06:47:33.421Z,85.06
2018-07-08T06:48:34.826Z,85.54
2018-07-08T06:49:36.216Z,85.64
2018-07-08T06:50:37.611Z,85.25
2018-07-08T06:51:38.993Z,85.54
2018-07-08T06:52:40.394Z,86.02
2018-07-08T06:53:41.787Z,86.02
2018-07-08T06:54:43.195Z,86.69
2018-07-08T06:55:44.585Z,86.41
2018-07-08T06:56:45.985Z,86.51
2018-07-08T06:57:47.388Z,86.51
2018-07-08T06:58:48.773Z,86.60
2018-07-08T06:59:50.249Z,86.69
2018-07-08T07:00:51.560Z,86.69
2018-07-08T07:01:52.958Z,86.12
2018-07-08T07:02:54.349Z,86.60
2018-07-08T07:03:55.754Z,86.31
2018-07-08T07:04:57.146Z,86.31
2018-07-08T07:05:58.540Z,86.89
2018-07-08T07:06:59.931Z,87.46
2018-07-08T07:08:01.322Z,87.46
2018-07-08T07:09:02.714Z,87.66
2018-07-08T07:10:04.120Z,87.37
2018-07-08T07:11:05.505Z,87.56
2018-07-08T07:12:06.903Z,87.66
2018-07-08T07:13:08.294Z,87.85
2018-07-08T07:14:09.694Z,87.66
2018-07-08T07:15:11.089Z,87.66
2018-07-08T07:16:12.485Z,87.76
2018-07-08T07:17:13.885Z,87.41
2018-07-08T07:18:15.271Z,87.76
2018-07-08T07:19:16.654Z,87.66
2018-07-08T07:20:18.065Z,87.56
2018-07-08T07:21:19.467Z,87.46
2018-07-08T07:22:20.852Z,88.14
2018-07-08T07:23:22.248Z,88.71
2018-07-08T07:24:23.636Z,88.33
2018-07-08T07:25:25.037Z,88.71
2018-07-08T07:26:26.459Z,88.62
2018-07-08T07:27:27.828Z,89.01
2018-07-08T07:28:29.236Z,88.71
2018-07-08T07:29:30.621Z,89.49
2018-07-08T07:30:32.002Z,89.29
2018-07-08T07:31:33.402Z,88.53
2018-07-08T07:32:34.796Z,88.71
2018-07-08T07:33:36.187Z,89.01
2018-07-08T07:34:37.592Z,88.81
2018-07-08T07:35:38.992Z,88.81
2018-07-08T07:36:40.386Z,88.81
2018-07-08T07:37:41.775Z,88.81
2018-07-08T07:38:43.179Z,89.58
2018-07-08T07:39:44.571Z,88.57
2018-07-08T07:40:45.964Z,88.91
2018-07-08T07:41:47.349Z,88.91
2018-07-08T07:42:48.740Z,88.91
2018-07-08T07:43:50.146Z,89.97
2018-07-08T07:44:51.548Z,88.85
2018-07-08T07:45:52.941Z,88.28
2018-07-08T07:46:54.339Z,89.15
2018-07-08T07:47:55.737Z,88.47
2018-07-08T07:48:57.129Z,88.57
2018-07-08T07:49:58.524Z,87.80
2018-07-08T07:50:59.908Z,88.47
2018-07-08T07:52:01.302Z,88.09
2018-07-08T07:53:02.707Z,89.05
2018-07-08T07:54:04.104Z,88.76
2018-07-08T07:55:05.496Z,89.15
2018-07-08T07:56:06.895Z,88.57
2018-07-08T07:57:08.290Z,87.60
2018-07-08T07:58:09.685Z,88.38
2018-07-08T07:59:11.073Z,87.70
2018-07-08T08:00:12.471Z,88.09
2018-07-08T08:01:13.868Z,87.70
2018-07-08T08:02:15.257Z,88.57
2018-07-08T08:03:16.654Z,87.90
2018-07-08T08:04:18.050Z,88.67
2018-07-08T08:05:19.447Z,87.70
2018-07-08T08:06:20.832Z,87.32
2018-07-08T08:07:22.219Z,88.18
2018-07-08T08:08:23.633Z,88.09
2018-07-08T08:09:25.012Z,88.47
2018-07-08T08:10:27.251Z,87.90
2018-07-08T08:11:28.642Z,88.24
2018-07-08T08:12:30.043Z,88.67
2018-07-08T08:13:31.432Z,89.01
2018-07-08T08:14:32.831Z,88.85
2018-07-08T08:15:34.238Z,88.33
2018-07-08T08:16:35.690Z,88.53
2018-07-08T08:17:37.088Z,87.99
2018-07-08T08:18:38.482Z,87.90
2018-07-08T08:19:39.871Z,88.24
2018-07-08T08:20:41.289Z,87.95
2018-07-08T08:21:42.688Z,88.24
2018-07-08T08:22:44.081Z,88.76
2018-07-08T08:23:45.475Z,88.76
2018-07-08T08:24:47.860Z,88.76
2018-07-08T08:25:49.256Z,89.24
2018-07-08T08:26:50.670Z,88.91
2018-07-08T08:27:52.046Z,89.10
2018-07-08T08:28:53.455Z,89.01
2018-07-08T08:29:54.846Z,88.71
2018-07-08T08:30:56.246Z,89.01
2018-07-08T08:31:57.646Z,88.91
2018-07-08T08:32:59.040Z,88.71
2018-07-08T08:34:00.434Z,89.20
2018-07-08T08:35:01.820Z,89.68
2018-07-08T08:36:03.208Z,89.49
2018-07-08T08:37:04.604Z,89.78
2018-07-08T08:38:06.052Z,89.58
2018-07-08T08:39:07.400Z,89.49
2018-07-08T08:40:08.784Z,89.97
2018-07-08T08:41:10.187Z,89.63
2018-07-08T08:42:11.560Z,89.49
2018-07-08T08:43:12.958Z,89.78
2018-07-08T08:44:14.351Z,89.39
2018-07-08T08:45:15.748Z,89.68
2018-07-08T08:46:17.922Z,89.58
2018-07-08T08:47:19.310Z,89.49
2018-07-08T08:48:20.712Z,89.87
2018-07-08T08:49:22.098Z,89.97
2018-07-08T08:50:23.502Z,89.49
2018-07-08T08:51:24.910Z,89.78
2018-07-08T08:52:26.302Z,89.63
2018-07-08T08:53:27.684Z,89.68
2018-07-08T08:54:29.074Z,90.11
2018-07-08T08:55:30.468Z,89.97
2018-07-08T08:56:31.862Z,90.35
2018-07-08T08:57:33.258Z,90.11
2018-07-08T08:58:34.613Z,90.01
2018-07-08T08:59:35.996Z,89.63
2018-07-08T09:00:37.388Z,89.82
2018-07-08T09:01:38.790Z,89.53
2018-07-08T09:02:40.185Z,89.92
2018-07-08T09:03:41.589Z,89.82
2018-07-08T09:04:42.966Z,90.01
2018-07-08T09:05:44.365Z,89.72
2018-07-08T09:06:45.750Z,89.82
2018-07-08T09:07:47.150Z,89.82
2018-07-08T09:08:48.547Z,89.63
2018-07-08T09:09:49.951Z,89.53
2018-07-08T09:10:51.353Z,89.92
2018-07-08T09:11:52.730Z,89.92
2018-07-08T09:12:54.120Z,89.82
2018-07-08T09:13:55.526Z,90.20
2018-07-08T09:14:56.924Z,90.59
2018-07-08T09:15:58.319Z,90.30
2018-07-08T09:16:59.718Z,90.50
2018-07-08T09:18:01.117Z,90.88
2018-07-08T09:19:02.510Z,90.69
2018-07-08T09:20:03.906Z,90.34
2018-07-08T09:21:05.306Z,89.86
2018-07-08T09:22:06.700Z,89.77
2018-07-08T09:23:08.091Z,89.62
2018-07-08T09:24:09.531Z,88.85
2018-07-08T09:25:10.891Z,87.83
2018-07-08T09:26:12.304Z,86.68
2018-07-08T09:27:13.696Z,85.94
2018-07-08T09:28:15.095Z,85.46
2018-07-08T09:29:16.501Z,84.89
2018-07-08T09:30:17.878Z,83.87
2018-07-08T09:31:19.279Z,83.00
2018-07-08T09:32:20.667Z,83.09
2018-07-08T09:33:22.066Z,82.51
2018-07-08T09:34:23.460Z,83.00
2018-07-08T09:35:24.856Z,82.42
2018-07-08T09:36:26.256Z,82.36
2018-07-08T09:37:27.645Z,81.88
2018-07-08T09:38:29.039Z,81.59
2018-07-08T09:39:30.427Z,81.30
2018-07-08T09:40:31.829Z,80.57
2018-07-08T09:41:33.214Z,79.41
2018-07-08T09:42:34.607Z,79.60
2018-07-08T09:43:36.010Z,79.12
2018-07-08T09:44:37.404Z,78.89
2018-07-08T09:45:38.798Z,79.17
2018-07-08T09:46:40.196Z,79.08
2018-07-08T09:47:41.600Z,79.60
2018-07-08T09:48:42.998Z,79.60
2018-07-08T09:49:44.400Z,79.60
2018-07-08T09:50:45.797Z,79.41
2018-07-08T09:51:47.198Z,79.22
2018-07-08T09:52:48.598Z,79.17
2018-07-08T09:53:49.981Z,79.41
2018-07-08T09:54:51.382Z,79.12
2018-07-08T09:55:52.770Z,78.54
2018-07-08T09:56:54.166Z,78.25
2018-07-08T09:57:55.580Z,77.90
2018-07-08T09:58:56.976Z,77.42
2018-07-08T09:59:58.373Z,77.42
2018-07-08T10:00:59.768Z,77.13
2018-07-08T10:02:01.181Z,76.35
2018-07-08T10:03:02.582Z,75.91
2018-07-08T10:04:03.970Z,75.04
2018-07-08T10:05:05.367Z,74.75
2018-07-08T10:06:06.767Z,74.55
2018-07-08T10:07:08.155Z,74.65
2018-07-08T10:08:09.552Z,75.43
2018-07-08T10:09:10.952Z,75.23
2018-07-08T10:10:12.354Z,76.01
2018-07-08T10:11:13.747Z,75.43
2018-07-08T10:12:15.140Z,74.94
2018-07-08T10:13:16.541Z,74.65
2018-07-08T10:14:17.944Z,74.85
2018-07-08T10:15:19.352Z,75.00
2018-07-08T10:16:20.765Z,75.29
2018-07-08T10:17:22.139Z,76.06
2018-07-08T10:18:24.170Z,76.84
2018-07-08T10:19:25.617Z,77.19
2018-07-08T10:20:26.955Z,77.38
2018-07-08T10:21:28.359Z,77.67
2018-07-08T10:22:29.742Z,77.57
2018-07-08T10:23:31.139Z,77.38
2018-07-08T10:24:32.531Z,77.96
2018-07-08T10:25:33.933Z,77.83
2018-07-08T10:26:35.330Z,77.96
2018-07-08T10:27:36.732Z,78.11
2018-07-08T10:28:38.118Z,78.64
2018-07-08T10:29:39.515Z,78.92
2018-07-08T10:30:40.908Z,78.34
2018-07-08T10:31:42.311Z,78.25
2018-07-08T10:32:44.307Z,77.48
2018-07-08T10:33:45.694Z,77.38
2018-07-08T10:34:47.086Z,77.42
2018-07-08T10:35:48.490Z,76.93
2018-07-08T10:36:49.881Z,77.22
2018-07-08T10:37:51.281Z,77.07
2018-07-08T10:38:52.680Z,76.39
2018-07-08T10:39:54.075Z,76.59
2018-07-08T10:40:55.479Z,76.01
2018-07-08T10:41:56.868Z,75.91
2018-07-08T10:42:58.276Z,76.59
2018-07-08T10:43:59.670Z,76.20
2018-07-08T10:45:01.057Z,76.45
2018-07-08T10:46:02.461Z,76.64
2018-07-08T10:47:03.822Z,76.64
2018-07-08T10:48:05.220Z,76.90
2018-07-08T10:49:06.613Z,77.00
2018-07-08T10:50:08.068Z,77.09
2018-07-08T10:51:09.360Z,77.28
2018-07-08T10:52:10.748Z,77.09
2018-07-08T10:53:12.147Z,77.42
2018-07-08T10:54:13.553Z,76.93
2018-07-08T10:55:14.997Z,76.93
2018-07-08T10:56:16.346Z,76.74
2018-07-08T10:57:17.757Z,76.55
2018-07-08T10:58:19.159Z,75.91
2018-07-08T10:59:20.561Z,75.23
2018-07-08T11:00:21.946Z,74.65
2018-07-08T11:01:23.347Z,74.01
2018-07-08T11:02:24.771Z,73.43
2018-07-08T11:03:26.222Z,73.33
2018-07-08T11:04:27.623Z,73.24
2018-07-08T11:05:29.032Z,73.53
2018-07-08T11:06:30.422Z,73.91
2018-07-08T11:07:31.828Z,74.11
2018-07-08T11:08:33.221Z,73.47
2018-07-08T11:09:34.626Z,72.69
2018-07-08T11:10:36.060Z,72.02
2018-07-08T11:11:37.415Z,71.14
2018-07-08T11:12:38.842Z,70.98
2018-07-08T11:13:40.224Z,70.50
2018-07-08T11:14:41.627Z,70.98
2018-07-08T11:15:43.032Z,71.04
2018-07-08T11:16:44.420Z,71.18
2018-07-08T11:17:45.827Z,70.60
2018-07-08T11:18:47.217Z,69.85
2018-07-08T11:19:48.630Z,70.05
2018-07-08T11:20:50.058Z,69.18
2018-07-08T11:21:51.423Z,69.47
2018-07-08T11:22:52.846Z,68.99
2018-07-08T11:23:54.248Z,69.08
2018-07-08T11:24:55.652Z,69.34
2018-07-08T11:25:57.049Z,69.53
2018-07-08T11:26:58.443Z,69.05
2018-07-08T11:27:59.846Z,69.73
2018-07-08T11:29:01.243Z,69.82
2018-07-08T11:30:02.661Z,69.43
2018-07-08T11:31:04.065Z,69.63
2018-07-08T11:32:05.465Z,70.21
2018-07-08T11:33:06.864Z,69.92
2018-07-08T11:34:08.261Z,70.11
2018-07-08T11:35:09.901Z,70.01
2018-07-08T11:36:11.303Z,70.11
2018-07-08T11:37:12.705Z,69.05
2018-07-08T11:38:14.108Z,69.18
2018-07-08T11:39:15.499Z,69.37
2018-07-08T11:40:16.893Z,67.92
2018-07-08T11:41:18.299Z,67.47
2018-07-08T11:42:19.836Z,67.37
2018-07-08T11:43:21.228Z,67.66
2018-07-08T11:44:22.633Z,66.69
2018-07-08T11:45:24.029Z,66.82
2018-07-08T11:46:25.424Z,65.59
2018-07-08T11:47:26.830Z,63.68
2018-07-08T11:48:28.223Z,63.01
2018-07-08T11:49:29.627Z,62.91
2018-07-08T11:50:31.028Z,62.65
2018-07-08T11:51:32.423Z,61.51
2018-07-08T11:52:33.824Z,60.08
2018-07-08T11:53:35.239Z,59.72
2018-07-08T11:54:36.632Z,58.82
2018-07-08T11:55:38.030Z,59.43
2018-07-08T11:56:39.434Z,59.43
2018-07-08T11:57:40.826Z,59.59
2018-07-08T11:58:42.255Z,60.25
2018-07-08T11:59:43.655Z,60.61
2018-07-08T12:00:45.060Z,61.09
2018-07-08T12:01:46.468Z,61.19
2018-07-08T12:02:47.863Z,61.77
2018-07-08T12:03:49.262Z,61.77
2018-07-08T12:04:50.661Z,61.87
2018-07-08T12:05:52.069Z,60.44
2018-07-08T12:06:53.426Z,59.38
2018-07-08T12:07:54.788Z,57.97
2018-07-08T12:08:56.235Z,56.84
2018-07-08T12:09:57.585Z,56.45
2018-07-08T12:10:58.977Z,56.05
2018-07-08T12:12:00.386Z,56.35
2018-07-08T12:13:01.783Z,56.64
2018-07-08T12:14:03.201Z,57.00
2018-07-08T12:15:04.597Z,57.39
2018-07-08T12:16:06.005Z,57.75
2018-07-08T12:17:07.405Z,57.87
2018-07-08T12:18:08.792Z,57.59
2018-07-08T12:19:10.201Z,57.68
2018-07-08T12:20:11.602Z,58.92
2018-07-08T12:21:13.007Z,58.31
2018-07-08T12:22:14.408Z,58.89
2018-07-08T12:23:15.806Z,59.47
2018-07-08T12:24:17.216Z,59.67
2018-07-08T12:25:18.612Z,59.67
2018-07-08T12:26:20.006Z,59.86
2018-07-08T12:27:21.431Z,58.82
2018-07-08T12:28:22.806Z,58.46
2018-07-08T12:29:24.199Z,57.39
2018-07-08T12:30:25.607Z,57.12
2018-07-08T12:31:26.993Z,56.54
2018-07-08T12:32:28.391Z,55.86
2018-07-08T12:33:29.806Z,55.27
2018-07-08T12:34:31.212Z,56.09
2018-07-08T12:35:32.624Z,55.60
2018-07-08T12:36:34.011Z,54.46
2018-07-08T12:37:35.418Z,54.36
2018-07-08T12:38:36.812Z,54.75
2018-07-08T12:39:38.206Z,55.33
2018-07-08T12:40:39.618Z,54.33
2018-07-08T12:41:41.011Z,54.91
2018-07-08T12:42:42.413Z,55.27
2018-07-08T12:43:43.814Z,56.05
2018-07-08T12:44:45.357Z,55.83
2018-07-08T12:45:46.605Z,56.03
2018-07-08T12:46:47.993Z,56.59
2018-07-08T12:47:49.400Z,57.10
2018-07-08T12:48:50.796Z,57.49
2018-07-08T12:49:52.193Z,57.26
2018-07-08T12:50:53.588Z,57.26
2018-07-08T12:51:54.985Z,57.36
2018-07-08T12:52:56.385Z,57.72
2018-07-08T12:53:57.792Z,58.59
2018-07-08T12:54:59.183Z,58.76
2018-07-08T12:56:00.589Z,59.05
2018-07-08T12:57:02.000Z,59.74
2018-07-08T12:58:03.390Z,60.41
2018-07-08T12:59:04.857Z,59.83
2018-07-08T13:00:06.146Z,59.64
2018-07-08T13:01:07.546Z,59.34
2018-07-08T13:02:08.952Z,59.25
2018-07-08T13:03:10.352Z,58.86
2018-07-08T13:04:11.753Z,59.34
2018-07-08T13:05:13.148Z,59.05
2018-07-08T13:06:14.611Z,58.67
2018-07-08T13:07:15.958Z,58.76
2018-07-08T13:08:17.358Z,58.28
2018-07-08T13:09:18.756Z,58.50
2018-07-08T13:10:20.173Z,58.59